Time;durP1;ratioP1;P1;durP2;ratioP2;P2;SDS_P1;SDS_P2;PMS_P1;PMS_P2;Temp;Humidity;BMP_temperature;BMP_pressure;BME280_temperature;BME280_humidity;BME280_pressure;Samples;Min_cycle;Max_cycle;Signal;HPM_P1;HPM_P2
2021/12/05 00:23:16;;;;;;;103.90;56.92;;;;;;;0.43;85.31;96994.34;10298712;28;20056;-59
2021/12/05 00:49:17;;;;;;;87.55;45.75;;;;;;;0.38;86.70;96986.56;10297285;28;20216;-59
2021/12/05 01:10:50;;;;;;;45.10;23.15;;;;;;;-0.14;86.29;96964.72;10297092;28;20068;-59
2021/12/05 01:15:49;;;;;;;45.97;24.73;;;;;;;-0.43;87.05;96941.81;10293635;28;20088;-59
2021/12/05 01:20:55;;;;;;;45.85;25.13;;;;;;;-0.63;86.77;96894.50;10296263;28;20053;-58
2021/12/05 02:02:59;;;;;;;49.50;25.60;;;;;;;-0.52;88.45;96955.97;10287145;28;20073;-59
2021/12/05 02:44:20;;;;;;;51.45;25.50;;;;;;;0.01;87.48;96982.16;10293527;28;20069;-58
2021/12/05 02:49:19;;;;;;;67.70;32.25;;;;;;;0.11;87.48;96978.16;10291849;28;20087;-58
2021/12/05 02:54:21;;;;;;;59.58;29.80;;;;;;;0.03;87.54;96958.41;10293218;28;20061;-59
2021/12/05 03:04:37;;;;;;;62.72;27.88;;;;;;;0.44;87.20;96971.38;10301609;28;20065;-59
2021/12/05 03:09:40;;;;;;;62.72;28.70;;;;;;;0.49;86.97;96968.94;10300389;28;20060;-59
2021/12/05 03:14:39;;;;;;;59.95;27.35;;;;;;;0.51;86.92;96971.56;10298795;28;20084;-59
2021/12/05 03:19:38;;;;;;;58.25;25.55;;;;;;;0.50;86.90;96954.50;10301012;28;20052;-59
2021/12/05 03:24:37;;;;;;;57.58;26.05;;;;;;;0.41;86.96;96963.66;10297398;28;20558;-59
2021/12/05 03:29:36;;;;;;;62.03;30.70;;;;;;;0.25;87.41;96951.31;10298659;28;20460;-59
2021/12/05 03:34:35;;;;;;;208.90;86.10;;;;;;;0.26;87.28;96963.25;10298552;28;20069;-59
2021/12/05 03:39:35;;;;;;;72.65;33.70;;;;;;;0.18;87.37;96962.19;10300477;28;20068;-58
2021/12/05 03:44:37;;;;;;;83.80;40.10;;;;;;;0.01;87.45;96975.34;10299986;28;20080;-59
2021/12/05 03:49:38;;;;;;;65.45;28.75;;;;;;;-0.06;87.66;96976.00;10298305;28;20088;-59
2021/12/05 03:54:37;;;;;;;51.67;22.77;;;;;;;-0.11;88.05;96987.78;10296839;28;20184;-58
2021/12/05 03:59:36;;;;;;;;;;;;;;;-0.04;87.80;96982.00;10297165;28;20056;-58
2021/12/05 04:04:35;;;;;;;60.70;28.33;;;;;;;0.01;87.45;96969.38;10292124;28;19909;-59
2021/12/05 04:09:35;;;;;;;;;;;;;;;0.05;87.40;96956.75;10295267;28;20061;-58
2021/12/05 04:14:42;;;;;;;55.10;26.35;;;;;;;-0.20;86.82;96918.66;10294223;28;20379;-59
2021/12/05 04:19:41;;;;;;;59.35;27.38;;;;;;;-0.14;87.13;96959.59;10294583;28;20068;-59
2021/12/05 04:24:40;;;;;;;63.20;31.33;;;;;;;-0.78;87.51;96863.50;10294827;28;20033;-58
2021/12/05 04:29:39;;;;;;;56.30;25.73;;;;;;;-1.14;87.44;96825.94;10294464;28;20065;-59
2021/12/05 04:34:38;;;;;;;57.42;23.70;;;;;;;-0.35;87.24;96970.06;10294559;28;20527;-59
2021/12/05 04:39:38;;;;;;;50.00;24.27;;;;;;;-0.95;87.38;96878.28;10295555;28;20066;-59
2021/12/05 04:44:37;;;;;;;58.08;27.27;;;;;;;-0.35;87.08;96979.41;10295796;28;20129;-59
2021/12/05 04:49:39;;;;;;;53.75;25.50;;;;;;;-0.69;87.00;96932.56;10254510;28;1106241;-59
2021/12/05 04:54:39;;;;;;;65.35;29.23;;;;;;;-0.47;86.67;96965.47;10296180;28;20456;-58
2021/12/05 04:59:44;;;;;;;92.20;27.25;;;;;;;-0.65;87.67;96996.38;10294508;28;20069;-59
2021/12/05 05:04:46;;;;;;;94.57;29.75;;;;;;;-1.44;87.58;96873.44;10294812;28;20069;-59
2021/12/05 05:09:47;;;;;;;144.93;37.35;;;;;;;-0.77;86.93;96990.03;10293306;28;20057;-59
2021/12/05 05:14:47;;;;;;;116.28;32.28;;;;;;;-1.00;88.08;96990.22;10294572;28;20582;-58
2021/12/05 05:19:54;;;;;;;79.18;29.00;;;;;;;-1.53;87.49;96912.97;10293839;28;20062;-59
2021/12/05 05:51:07;;;;;;;88.00;21.25;;;;;;;-1.29;89.62;96995.19;10283386;28;20077;-59
2021/12/05 05:56:15;;;;;;;144.93;37.28;;;;;;;-1.64;89.25;96908.41;10293872;28;20543;-59
2021/12/05 06:01:43;;;;;;;183.35;63.75;;;;;;;-1.24;89.36;96990.25;10295289;28;20084;-59
2021/12/05 06:06:38;;;;;;;191.98;75.55;;;;;;;-1.18;90.14;96979.44;10294245;28;20507;-59
2021/12/05 06:11:37;;;;;;;178.93;72.57;;;;;;;-1.02;90.61;96968.91;10293204;28;20073;-59
2021/12/05 06:16:36;;;;;;;148.48;66.60;;;;;;;-1.21;90.34;96911.47;10291930;28;20061;-59
2021/12/05 06:21:35;;;;;;;105.47;47.17;;;;;;;-0.64;90.47;96936.09;10294055;28;20065;-59
2021/12/05 06:26:35;;;;;;;84.93;42.28;;;;;;;-0.29;92.04;96932.00;10292825;28;20053;-59
2021/12/05 06:36:57;;;;;;;109.97;50.67;;;;;;;0.40;92.16;96948.28;10292038;28;20510;-59
2021/12/05 06:47:03;;;;;;;122.95;71.20;;;;;;;0.63;91.38;96929.31;10293831;28;20076;-59
2021/12/05 06:52:03;;;;;;;102.55;55.88;;;;;;;1.02;91.60;96966.00;10293969;28;20081;-59
2021/12/05 06:57:03;;;;;;;88.60;51.95;;;;;;;0.14;91.38;96767.34;10290334;28;20518;-59
2021/12/05 07:02:03;;;;;;;53.55;31.45;;;;;;;1.87;91.51;96953.34;10291446;28;20069;-59
2021/12/05 07:07:03;;;;;;;;;;;;;;;2.56;92.10;96947.84;10292716;28;20118;-59
2021/12/05 07:12:35;;;;;;;95.78;56.85;;;;;;;3.25;90.22;96960.88;10293267;28;19963;-59
2021/12/05 07:22:29;;;;;;;48.92;30.15;;;;;;;3.00;86.04;96941.69;10291337;28;20073;-59
2021/12/05 07:43:20;;;;;;;17.10;10.13;;;;;;;3.97;86.46;96927.63;10291384;28;20388;-59
2021/12/05 07:48:32;;;;;;;13.20;7.32;;;;;;;4.32;84.86;96888.63;10296306;28;20065;-59
2021/12/05 07:53:41;;;;;;;14.27;6.97;;;;;;;4.65;82.91;96840.09;10296896;28;20093;-59
2021/12/05 07:58:55;;;;;;;11.45;6.32;;;;;;;5.41;80.29;96881.75;10296070;28;20527;-59
2021/12/05 08:19:28;;;;;;;12.88;7.90;;;;;;;6.50;74.70;96949.09;10289052;28;20125;-59
2021/12/05 08:24:36;;;;;;;12.75;7.75;;;;;;;6.66;75.32;96961.16;10292749;28;20523;-59
2021/12/05 08:29:53;;;;;;;12.88;6.85;;;;;;;6.70;73.79;96964.59;10296087;28;20065;-59
2021/12/05 10:15:18;;;;;;;10.25;6.85;;;;;;;8.91;64.10;96848.44;10294817;28;20073;-58
2021/12/05 10:37:05;;;;;;;12.52;7.65;;;;;;;9.17;63.22;96824.03;10294392;28;20744;-58
2021/12/05 10:42:35;;;;;;;11.05;7.20;;;;;;;9.17;62.67;96816.28;10290161;28;20452;-58
2021/12/05 10:47:45;;;;;;;12.68;7.35;;;;;;;9.29;62.82;96818.75;10292414;28;20065;-59
2021/12/05 10:52:43;;;;;;;12.95;7.20;;;;;;;9.12;62.22;96745.59;10292737;28;20092;-58
2021/12/05 10:57:50;;;;;;;10.48;6.38;;;;;;;9.46;62.06;96784.06;10293302;28;20029;-58
2021/12/05 11:02:49;;;;;;;13.40;6.97;;;;;;;9.65;61.74;96795.91;10292180;28;20479;-58
2021/12/05 11:07:49;;;;;;;11.05;6.97;;;;;;;9.75;61.24;96784.53;10292410;28;20027;-58
2021/12/05 11:12:47;;;;;;;12.23;7.78;;;;;;;9.57;61.21;96731.25;10289851;28;20466;-58
2021/12/05 11:17:49;;;;;;;11.32;6.78;;;;;;;9.93;60.54;96764.41;10290923;28;20480;-58
2021/12/05 11:22:50;;;;;;;14.63;6.75;;;;;;;9.76;60.10;96721.47;10298603;28;20084;-58
2021/12/05 11:27:58;;;;;;;10.90;6.38;;;;;;;10.14;59.52;96761.53;10300331;28;20073;-59
2021/12/05 11:32:59;;;;;;;12.27;6.47;;;;;;;10.28;59.33;96744.88;10299031;28;20086;-59
2021/12/05 11:38:04;;;;;;;9.30;6.43;;;;;;;10.27;59.35;96745.78;10299831;28;20065;-58
2021/12/05 11:43:04;;;;;;;12.27;7.05;;;;;;;10.32;59.59;96746.56;10298354;28;20065;-58
2021/12/05 11:48:17;;;;;;;11.93;7.22;;;;;;;10.30;59.33;96732.75;10299053;28;20061;-58
2021/12/05 11:53:33;;;;;;;12.50;7.25;;;;;;;10.39;59.20;96725.69;10297684;28;20081;-58
2021/12/05 11:58:32;;;;;;;15.27;8.85;;;;;;;10.35;58.29;96690.28;10298522;28;20077;-58
2021/12/05 12:03:35;;;;;;;11.40;7.75;;;;;;;10.52;58.12;96726.34;10298184;28;20069;-58
2021/12/05 12:08:34;;;;;;;14.50;8.27;;;;;;;10.52;57.84;96703.00;10297514;28;20077;-59
2021/12/05 12:13:35;;;;;;;9.57;6.93;;;;;;;10.54;58.51;96705.53;10298037;28;20061;-58
2021/12/05 12:18:39;;;;;;;13.93;7.10;;;;;;;10.47;58.49;96706.53;10298252;28;20614;-59
2021/12/05 12:23:39;;;;;;;12.85;7.60;;;;;;;10.55;58.17;96692.56;10298051;28;20066;-58
2021/12/05 12:28:39;;;;;;;15.00;8.38;;;;;;;10.59;58.53;96698.56;10297612;28;20073;-59
2021/12/05 12:33:48;;;;;;;;;;;;;;;10.65;58.12;96713.16;10297611;28;20077;-58
2021/12/05 12:38:47;;;;;;;14.57;7.85;;;;;;;10.60;57.33;96680.34;10291869;28;20673;-58
2021/12/05 12:43:54;;;;;;;13.30;8.05;;;;;;;10.78;57.12;96709.44;10295671;28;20391;-58
2021/12/05 12:49:16;;;;;;;14.00;7.95;;;;;;;10.81;57.02;96702.44;10295741;28;20070;-59
2021/12/05 12:54:26;;;;;;;10.15;6.85;;;;;;;10.84;56.93;96681.63;10292906;28;20081;-58
2021/12/05 12:59:30;;;;;;;13.40;7.15;;;;;;;10.89;56.71;96681.56;10295718;28;20061;-59
2021/12/05 13:15:25;;;;;;;11.20;6.97;;;;;;;10.94;55.72;96682.34;10296492;28;20077;-59
2021/12/05 13:20:24;;;;;;;10.75;7.38;;;;;;;10.95;55.43;96678.84;10284459;28;20057;-59
2021/12/05 13:25:23;;;;;;;12.55;7.38;;;;;;;10.91;55.42;96673.75;10295741;28;20520;-59
2021/12/05 13:30:34;;;;;;;12.57;7.75;;;;;;;10.86;55.57;96675.56;10294884;28;20033;-59
2021/12/05 13:35:36;;;;;;;13.90;7.50;;;;;;;10.56;55.81;96636.34;10294587;28;20066;-58
2021/12/05 13:40:38;;;;;;;11.25;7.30;;;;;;;10.51;55.36;96638.16;10294466;28;20049;-59
2021/12/05 13:45:43;;;;;;;12.05;7.90;;;;;;;10.68;55.58;96684.53;10294190;28;20062;-59
2021/12/05 13:51:13;;;;;;;13.27;7.82;;;;;;;10.38;55.94;96653.13;10294799;28;20077;-59
2021/12/05 13:56:15;;;;;;;13.33;7.63;;;;;;;10.49;55.67;96687.47;10282425;28;20069;-59
2021/12/05 14:01:45;;;;;;;13.88;8.68;;;;;;;10.33;55.80;96694.69;10294117;28;20088;-59
2021/12/05 14:07:04;;;;;;;14.38;7.25;;;;;;;10.16;56.68;96707.91;10290142;28;20069;-59
2021/12/05 14:12:13;;;;;;;13.20;8.47;;;;;;;10.04;56.71;96710.69;10292590;28;20065;-59
2021/12/05 14:17:26;;;;;;;14.20;9.15;;;;;;;9.92;57.19;96705.72;10294016;28;20470;-59
2021/12/05 14:22:31;;;;;;;15.10;8.30;;;;;;;9.76;57.21;96705.94;10294051;28;20069;-59
2021/12/05 14:27:34;;;;;;;15.05;8.57;;;;;;;9.52;59.22;96701.97;10293447;28;20069;-59
2021/12/05 14:32:37;;;;;;;16.25;10.15;;;;;;;9.31;60.31;96695.34;10293747;28;20057;-59
2021/12/05 14:37:39;;;;;;;15.52;9.57;;;;;;;9.11;60.72;96695.56;10293195;28;20519;-59
2021/12/05 14:42:45;;;;;;;17.42;10.45;;;;;;;8.92;61.15;96687.16;10292256;28;20072;-59
2021/12/05 14:47:47;;;;;;;15.32;10.07;;;;;;;8.86;61.97;96700.16;10290799;28;20057;-59
2021/12/05 14:52:50;;;;;;;17.58;10.80;;;;;;;8.68;62.86;96705.53;10295009;28;20089;-59
2021/12/05 14:57:56;;;;;;;18.67;11.55;;;;;;;8.55;63.33;96703.94;10300602;28;20470;-59
2021/12/05 15:03:17;;;;;;;17.48;11.45;;;;;;;8.45;63.24;96706.59;10300013;28;20218;-59
2021/12/05 15:08:20;;;;;;;19.05;12.55;;;;;;;8.26;63.12;96686.97;10301220;28;20065;-59
2021/12/05 15:13:19;;;;;;;20.88;11.85;;;;;;;8.00;63.29;96675.13;10300923;28;20064;-59
2021/12/05 15:18:28;;;;;;;19.55;11.18;;;;;;;8.20;64.03;96723.19;10300629;28;20061;-59
2021/12/05 15:23:30;;;;;;;19.00;10.60;;;;;;;8.14;64.26;96729.28;10301012;28;20065;-59
2021/12/05 15:28:29;;;;;;;22.05;12.50;;;;;;;8.09;64.52;96738.81;10297513;28;20085;-59
2021/12/05 15:33:28;;;;;;;18.98;11.35;;;;;;;8.01;64.54;96743.16;10298968;28;20069;-59
2021/12/05 15:38:30;;;;;;;52.15;30.00;;;;;;;7.80;65.70;96745.03;10296480;28;20069;-59
2021/12/05 15:43:32;;;;;;;55.17;31.42;;;;;;;7.78;65.20;96767.44;10296241;28;20595;-59
2021/12/05 15:48:35;;;;;;;37.92;22.60;;;;;;;7.52;66.24;96752.09;10298029;28;20692;-59
2021/12/05 15:53:36;;;;;;;47.42;30.08;;;;;;;6.95;67.25;96736.78;10299723;28;20077;-59
2021/12/05 15:58:40;;;;;;;40.08;25.90;;;;;;;6.68;67.66;96771.25;10298135;28;20164;-59
2021/12/05 16:03:49;;;;;;;48.70;29.27;;;;;;;6.38;69.05;96761.84;10297706;28;20080;-59
2021/12/05 16:08:49;;;;;;;;;;;;;;;6.17;69.62;96750.66;10299822;28;20069;-59
2021/12/05 16:13:51;;;;;;;27.98;15.48;;;;;;;5.93;70.24;96715.47;10280419;28;19988;-59
2021/12/05 16:18:54;;;;;;;23.92;11.75;;;;;;;6.30;70.39;96746.34;10297142;28;20065;-59
2021/12/05 16:23:56;;;;;;;24.98;13.15;;;;;;;6.46;70.86;96761.81;10268926;28;20057;-59
2021/12/05 16:28:58;;;;;;;22.52;11.88;;;;;;;6.62;70.17;96781.56;10258019;28;20072;-59
2021/12/05 16:34:09;;;;;;;19.85;11.55;;;;;;;6.20;69.59;96726.63;10263061;28;20062;-59
2021/12/05 16:39:13;;;;;;;48.35;25.98;;;;;;;6.14;70.05;96807.34;10258460;28;20061;-59
2021/12/05 16:44:20;;;;;;;54.53;30.40;;;;;;;5.73;71.67;96794.38;10294910;28;20058;-59
2021/12/05 16:49:25;;;;;;;21.15;12.80;;;;;;;5.86;71.86;96798.72;10296800;28;20068;-59
2021/12/05 16:54:26;;;;;;;46.13;28.30;;;;;;;5.90;71.83;96797.84;10293179;28;20072;-59
2021/12/05 16:59:25;;;;;;;75.63;47.08;;;;;;;5.53;71.20;96796.88;10269289;28;20583;-59
2021/12/05 17:04:49;;;;;;;74.47;44.58;;;;;;;5.15;72.38;96805.31;10277793;28;20124;-59
2021/12/05 17:09:49;;;;;;;27.80;16.60;;;;;;;4.23;74.48;96686.53;10295835;28;20807;-59
2021/12/05 17:14:47;;;;;;;21.50;11.88;;;;;;;5.10;76.44;96789.84;10296277;28;20061;-59
2021/12/05 17:19:48;;;;;;;21.88;12.77;;;;;;;5.53;76.98;96789.16;10292726;28;20051;-59
2021/12/05 17:24:49;;;;;;;22.67;12.20;;;;;;;5.80;76.73;96761.78;10296199;28;20057;-59
2021/12/05 17:29:49;;;;;;;22.55;12.65;;;;;;;5.99;75.91;96768.69;10296027;28;20518;-59
2021/12/05 17:34:51;;;;;;;20.42;13.15;;;;;;;6.09;75.18;96778.13;10294827;28;20058;-59
2021/12/05 17:39:51;;;;;;;22.30;13.23;;;;;;;6.21;74.79;96764.41;10292709;28;20046;-59
2021/12/05 17:44:55;;;;;;;22.13;12.65;;;;;;;6.23;74.83;96770.41;10295562;28;20090;-59
2021/12/05 17:49:58;;;;;;;23.23;13.23;;;;;;;6.21;74.76;96767.00;10293356;28;20510;-59
2021/12/05 17:55:06;;;;;;;23.73;15.95;;;;;;;6.27;74.04;96774.69;10294949;28;20077;-59
2021/12/05 18:00:34;;;;;;;25.35;14.50;;;;;;;6.25;74.37;96771.25;10293223;28;20103;-59
2021/12/05 18:05:44;;;;;;;31.05;19.77;;;;;;;6.12;73.19;96778.13;10293226;28;20139;-59
2021/12/05 18:10:48;;;;;;;23.30;13.50;;;;;;;5.54;74.28;96696.53;10293315;28;20045;-59
2021/12/05 18:15:57;;;;;;;24.33;14.80;;;;;;;6.14;73.84;96762.66;10291083;28;20488;-59
2021/12/05 18:20:57;;;;;;;20.35;11.93;;;;;;;6.25;73.50;96773.00;10289638;28;20060;-59
2021/12/05 18:25:57;;;;;;;19.23;11.13;;;;;;;6.35;73.28;96765.28;10293577;28;20061;-59
2021/12/05 18:30:57;;;;;;;20.63;12.13;;;;;;;6.57;72.66;96783.28;10289477;28;20504;-59
2021/12/05 18:35:57;;;;;;;18.65;11.30;;;;;;;6.66;72.01;96775.56;10292869;28;20068;-59
2021/12/05 18:40:59;;;;;;;16.85;10.68;;;;;;;6.83;71.41;96762.63;10293004;28;20057;-59
2021/12/05 18:45:59;;;;;;;19.08;12.25;;;;;;;6.99;71.14;96773.75;10292712;28;20065;-59
2021/12/05 18:50:59;;;;;;;24.17;15.40;;;;;;;7.05;70.90;96773.72;10293699;28;20073;-59
2021/12/05 18:55:58;;;;;;;;;;;;;;;6.73;70.71;96710.22;10293851;28;20061;-59
2021/12/05 19:06:21;;;;;;;;;;;;;;;7.23;69.59;96757.34;10293755;28;20065;-59
2021/12/05 19:16:38;;;;;;;19.40;12.88;;;;;;;6.86;69.39;96668.91;10291863;28;20066;-59
2021/12/05 19:21:37;;;;;;;;;;;;;;;7.08;69.10;96722.16;10293205;28;20495;-58
2021/12/05 19:26:36;;;;;;;147.87;73.23;;;;;;;6.93;69.98;96724.75;10293137;28;19949;-59
2021/12/05 19:31:35;;;;;;;41.58;24.38;;;;;;;7.02;69.97;96742.78;10289397;28;20061;-59
2021/12/05 19:36:35;;;;;;;42.90;27.90;;;;;;;7.08;69.75;96739.31;10290516;28;20073;-59
2021/12/05 19:41:35;;;;;;;28.00;17.92;;;;;;;7.06;69.31;96733.34;10297267;28;20057;-59
2021/12/05 19:46:37;;;;;;;20.80;11.40;;;;;;;6.72;69.57;96687.88;10296512;28;20076;-59
2021/12/05 19:51:37;;;;;;;16.95;10.75;;;;;;;6.81;69.66;96715.34;10299440;28;20436;-59
2021/12/05 19:56:44;;;;;;;16.80;10.32;;;;;;;6.83;70.37;96705.88;10298941;28;20069;-59
2021/12/05 20:01:46;;;;;;;16.88;10.63;;;;;;;7.04;69.93;96723.88;10298315;28;21176;-59
2021/12/05 20:06:47;;;;;;;17.90;11.32;;;;;;;6.88;69.02;96693.84;10298729;28;20688;-59
2021/12/05 20:11:47;;;;;;;14.48;9.98;;;;;;;7.08;69.37;96722.16;10298901;28;20057;-59
2021/12/05 20:16:47;;;;;;;20.30;12.27;;;;;;;6.95;69.00;96684.34;10274578;28;20078;-59
2021/12/05 20:21:46;;;;;;;;;;;;;;;7.06;69.07;96717.88;10257447;28;20058;-59
2021/12/05 20:26:47;;;;;;;27.23;17.10;;;;;;;6.76;69.50;96706.78;10262402;28;20578;-59
2021/12/05 20:31:46;;;;;;;25.58;16.35;;;;;;;6.74;69.74;96717.06;10328227;28;20128;-59
2021/12/05 20:36:45;;;;;;;;;;;;;;;6.63;69.36;96703.34;10297449;28;20112;-59
2021/12/05 20:41:44;;;;;;;25.75;13.55;;;;;;;6.49;70.83;96718.00;10297702;28;19916;-59
2021/12/05 20:46:43;;;;;;;22.83;14.05;;;;;;;6.37;70.76;96712.03;10297250;28;20408;-59
2021/12/05 20:51:42;;;;;;;17.73;11.57;;;;;;;6.29;71.35;96715.47;10296919;28;20088;-59
2021/12/05 20:56:41;;;;;;;19.85;12.55;;;;;;;5.94;71.41;96639.06;10292202;28;20522;-59
2021/12/05 21:01:40;;;;;;;18.85;11.63;;;;;;;6.27;71.99;96704.28;10296312;28;20683;-59
2021/12/05 21:06:40;;;;;;;18.67;10.25;;;;;;;6.30;72.27;96689.66;10296868;28;20488;-59
2021/12/05 21:11:39;;;;;;;19.40;11.15;;;;;;;6.38;71.76;96690.53;10293712;28;20073;-59
2021/12/05 21:16:38;;;;;;;19.65;11.35;;;;;;;6.28;71.42;96665.66;10296571;28;20104;-59
2021/12/05 21:21:38;;;;;;;17.75;10.68;;;;;;;6.41;71.04;96684.50;10293680;28;20029;-59
2021/12/05 21:26:37;;;;;;;;;;;;;;;6.32;71.79;96676.78;10297040;28;20069;-59
2021/12/05 21:31:36;;;;;;;16.20;10.68;;;;;;;6.26;72.16;96651.91;10296070;28;19986;-59
2021/12/05 21:36:35;;;;;;;19.25;11.30;;;;;;;6.32;72.13;96672.50;10295521;28;20061;-59
2021/12/05 21:41:34;;;;;;;17.15;11.25;;;;;;;6.29;72.19;96657.06;10295272;28;20499;-59
2021/12/05 21:46:33;;;;;;;17.98;11.18;;;;;;;6.33;71.10;96669.06;10296156;28;20066;-59
2021/12/05 21:51:32;;;;;;;18.80;11.93;;;;;;;5.87;71.68;96594.44;10293572;28;20085;-59
2021/12/05 21:56:31;;;;;;;18.02;11.73;;;;;;;6.31;71.38;96673.38;10294243;28;20065;-59
2021/12/05 22:01:30;;;;;;;16.15;10.52;;;;;;;6.29;71.61;96662.19;10294863;28;20066;-59
2021/12/05 22:06:29;;;;;;;17.38;10.73;;;;;;;6.23;71.48;96687.97;10294683;28;20096;-59
2021/12/05 22:11:28;;;;;;;17.77;10.18;;;;;;;6.16;72.45;96693.97;10295096;28;20531;-59
2021/12/05 22:16:28;;;;;;;18.70;11.25;;;;;;;6.14;71.54;96687.97;10293044;28;20080;-59
2021/12/05 22:21:34;;;;;;;16.48;11.07;;;;;;;6.09;71.94;96667.38;10294980;28;20428;-59
2021/12/05 22:26:34;;;;;;;19.50;12.00;;;;;;;6.08;71.95;96680.25;10294909;28;20066;-59
2021/12/05 22:31:36;;;;;;;18.17;10.95;;;;;;;6.08;72.85;96672.53;10292875;28;20077;-59
2021/12/05 22:36:36;;;;;;;18.02;11.45;;;;;;;6.05;73.07;96678.56;10292003;28;20165;-59
2021/12/05 22:41:35;;;;;;;19.63;11.32;;;;;;;5.93;72.33;96653.66;10294001;28;20061;-59
2021/12/05 22:46:35;;;;;;;;;;;;;;;6.11;72.68;96652.78;10294201;28;20476;-59
2021/12/05 22:51:34;;;;;;;15.70;9.60;;;;;;;6.17;72.63;96646.78;10293472;28;19992;-59
2021/12/05 22:56:33;;;;;;;14.40;8.90;;;;;;;6.06;71.83;96618.44;10293002;28;20074;-59
2021/12/05 23:01:32;;;;;;;24.73;9.88;;;;;;;6.24;72.05;96617.56;10293852;28;20061;-59
2021/12/05 23:06:32;;;;;;;16.52;9.18;;;;;;;6.32;71.54;96617.53;10293703;28;20061;-59
2021/12/05 23:11:31;;;;;;;14.63;8.90;;;;;;;6.31;72.11;96613.25;10293063;28;20102;-59
2021/12/05 23:16:31;;;;;;;15.50;8.95;;;;;;;6.32;71.56;96615.81;10296531;28;20503;-59
2021/12/05 23:21:36;;;;;;;14.48;8.80;;;;;;;6.38;71.36;96627.84;10297027;28;20109;-59
2021/12/05 23:26:38;;;;;;;16.63;10.15;;;;;;;6.39;71.13;96604.63;10298755;28;20077;-59
2021/12/05 23:31:37;;;;;;;18.13;10.65;;;;;;;6.03;71.51;96551.50;10299617;28;20061;-59
2021/12/05 23:36:36;;;;;;;;;;;;;;;6.30;71.77;96591.75;10300044;28;20069;-59
2021/12/05 23:41:36;;;;;;;19.27;10.30;;;;;;;6.27;71.66;96612.41;10300055;28;19961;-59
2021/12/05 23:46:35;;;;;;;17.23;10.73;;;;;;;6.17;71.23;96595.25;10300508;28;20072;-59
2021/12/05 23:51:35;;;;;;;16.95;9.80;;;;;;;6.20;72.03;96615.84;10299824;28;20085;-59
2021/12/05 23:56:34;;;;;;;18.48;11.00;;;;;;;6.16;72.20;96596.97;10300268;28;20468;-59
